ΕΜΥ, Εθνική Μετεωρολογική Υπηρεσία - Δελτία Καιρού, Προγνώσεις

ΑΕΡΟΝΑΥΤΙΛΙΑ

GREEK AIRPORTS CODES

LGLE 091330Z AUTO 35009KT //// // ////// 17/06 Q1013 RE//=

EUROPEAN AIRPORTS CODES

LFPO 091300Z 31017KT 280V340 9999 SCT031 FEW033TCU BKN05110/04 Q1011 TEMPO 31020G35KT SCT025CB=